PAED METAR and TAF weather

Enter ICAO airport designator
Station Type Date Time Source
PAED METAR 2022/06/27 07:56 UTC NOAA

PAED 270756Z 00000KT 10SM FEW100 FEW200 13/10 A3026 RMK AO2A SLP243 CONTRAILS T01270102 $


Station Type Date Time Source
PAED Decoded METAR 2022/06/27 07:56 UTC NOAA

Anchorage, Elmendorf Air Force Base, AK, United States (PAED) 61-15-11N 149-47-38W 59M
Jun 27, 2022 - 03:56 AM EDT / 2022.06.27 0756 UTC
Wind: Calm:0
Visibility: 10 mile(s):0
Sky conditions: mostly clear
Temperature: 54.9 F (12.7 C)
Dew Point: 50.4 F (10.2 C)
Relative Humidity: 84%
Pressure (altimeter): 30.26 in. Hg (1024 hPa)
ob: PAED 270756Z 00000KT 10SM FEW100 FEW200 13/10 A3026 RMK AO2A SLP243 CONTRAILS T01270102
cycle: 8

Station Type Date Time Source
PAED TAF 2022/06/27 02:09 UTC NOAA

TAF PAED 270200Z 2702/2808 25009KT 9999 FEW050 SCT200 QNH3024INS
BECMG 2708/2709 VRB06KT 9999 FEW008 SCT045 BKN180 QNH3023INS
BECMG 2711/2712 VRB06KT 9000 BR FEW008 BKN015 QNH3026INS
BECMG 2720/2721 25009KT 9999 NSW FEW030 SCT180 QNH3028INS TX19/2801Z TN11/2713Z

Example: see airport list